Terminal Aerodrome Forecast
Issued by NWS Louisville, KY

Home | Current Version | Previous Version | Text Only | Print | Product List | Glossary On
Versions: 1 2 3 4 5 6 7 8 9 10 11 12 13 14 15 16 17
000
FTUS43 KLMK 271000 AAB
TAFBWG
TAF AMD
KBWG 271043Z 2711/2806 15005KT P6SM BKN060
     FM271300 19007KT P6SM VCSH OVC050
     FM271900 20007KT P6SM VCSH OVC025
     FM272100 20005KT 5SM -RA BR BKN022
     FM280200 22005KT 4SM -RA BR BKN008=

USA.gov is the U.S. government's official web portal to all federal, state and local government web resources and services.